Time;durP1;ratioP1;P1;durP2;ratioP2;P2;SDS_P1;SDS_P2;PMS_P1;PMS_P2;Temp;Humidity;BMP_temperature;BMP_pressure;BME280_temperature;BME280_humidity;BME280_pressure;Samples;Min_cycle;Max_cycle;Signal;HPM_P1;HPM_P2
2022/03/03 00:00:33;;;;;;;35.17;17.55;;;;;;;3.76;88.34;99887.30;1712770;83;21131;-69
2022/03/03 00:03:00;;;;;;;36.80;17.65;;;;;;;3.70;88.36;99876.95;1712739;83;21105;-69
2022/03/03 00:05:27;;;;;;;32.53;16.48;;;;;;;3.72;88.80;99876.49;1712630;83;21030;-70
2022/03/03 00:07:53;;;;;;;33.95;15.48;;;;;;;3.69;88.73;99869.58;1712881;83;21065;-70
2022/03/03 00:10:19;;;;;;;42.20;19.25;;;;;;;3.65;88.79;99868.34;1712767;83;21189;-70
2022/03/03 00:12:46;;;;;;;37.15;17.50;;;;;;;3.62;89.18;99867.94;1712842;83;21097;-70
2022/03/03 00:15:13;;;;;;;32.05;15.23;;;;;;;3.51;89.12;99862.86;1712787;83;21077;-69
2022/03/03 00:17:40;;;;;;;38.67;17.75;;;;;;;3.45;89.59;99868.17;1712668;83;21097;-70
2022/03/03 00:20:10;;;;;;;39.73;18.35;;;;;;;3.39;90.16;99864.33;1712797;83;21124;-70
2022/03/03 00:22:37;;;;;;;33.15;16.97;;;;;;;3.35;90.80;99866.09;1712757;83;21119;-70
2022/03/03 00:25:05;;;;;;;37.48;16.67;;;;;;;3.36;91.38;99861.77;1712436;83;21125;-69
2022/03/03 00:27:31;;;;;;;31.93;15.60;;;;;;;3.46;91.12;99857.30;1712672;83;21636;-70
2022/03/03 00:29:58;;;;;;;32.67;15.38;;;;;;;3.50;90.62;99854.64;1712735;83;21538;-70
2022/03/03 00:32:24;;;;;;;45.75;19.25;;;;;;;3.54;90.48;99858.94;1712995;83;21068;-70
2022/03/03 00:34:51;;;;;;;32.20;14.35;;;;;;;3.52;90.34;99859.81;1712797;83;21164;-70
2022/03/03 00:37:17;;;;;;;32.85;15.45;;;;;;;3.64;91.90;99851.01;1712461;83;21081;-69
2022/03/03 00:39:44;;;;;;;38.48;17.23;;;;;;;3.88;90.66;99848.49;1712554;83;21013;-69
2022/03/03 00:42:11;;;;;;;31.02;14.85;;;;;;;3.87;89.17;99845.03;1712631;83;21080;-70
2022/03/03 00:44:37;;;;;;;35.85;18.05;;;;;;;3.73;88.92;99840.47;1728839;82;21088;-69
2022/03/03 00:47:06;;;;;;;33.23;16.05;;;;;;;3.70;88.96;99847.00;1746863;81;21037;-71
2022/03/03 00:49:33;;;;;;;28.98;13.78;;;;;;;3.65;89.45;99844.91;1748118;82;21044;-68
2022/03/03 00:52:01;;;;;;;33.90;15.68;;;;;;;3.66;90.17;99845.31;1748238;82;21493;-69
2022/03/03 00:54:27;;;;;;;29.85;14.68;;;;;;;3.75;89.99;99839.56;1748279;82;21084;-70
2022/03/03 00:56:54;;;;;;;34.98;16.05;;;;;;;3.75;89.15;99838.67;1748142;82;21069;-69
2022/03/03 00:59:21;;;;;;;37.98;17.45;;;;;;;3.68;89.75;99834.44;1748404;82;21081;-70
2022/03/03 01:01:48;;;;;;;36.33;17.12;;;;;;;3.80;89.95;99831.68;1748251;82;21053;-69
2022/03/03 01:04:15;;;;;;;39.20;17.98;;;;;;;3.79;89.13;99828.64;1748270;82;21077;-69
2022/03/03 01:06:42;;;;;;;56.02;29.50;;;;;;;3.70;89.23;99827.47;1748247;82;21089;-70
2022/03/03 01:09:10;;;;;;;57.48;27.52;;;;;;;3.64;89.64;99835.38;1748162;82;21041;-69
2022/03/03 01:11:37;;;;;;;51.08;20.52;;;;;;;3.51;89.46;99830.77;1748134;82;21219;-69
2022/03/03 01:14:04;;;;;;;40.17;17.32;;;;;;;3.49;90.18;99833.83;1748307;82;21077;-69
2022/03/03 01:16:32;;;;;;;42.05;17.95;;;;;;;3.47;89.92;99831.23;1748146;82;21077;-70
2022/03/03 01:18:59;;;;;;;36.17;16.27;;;;;;;3.64;92.10;99824.97;1748269;82;21041;-69
2022/03/03 01:21:25;;;;;;;38.30;17.30;;;;;;;3.79;90.67;99822.12;1748190;82;21088;-68
2022/03/03 01:23:53;;;;;;;37.48;17.30;;;;;;;3.78;89.97;99826.48;1748390;82;21079;-69
2022/03/03 01:26:22;;;;;;;39.50;17.30;;;;;;;3.73;89.37;99827.45;1748380;82;21033;-68
2022/03/03 01:28:48;;;;;;;33.53;14.98;;;;;;;3.73;89.73;99826.14;1748317;81;21054;-69
2022/03/03 01:31:14;;;;;;;35.58;16.32;;;;;;;3.77;90.43;99827.80;1748448;82;21002;-69
2022/03/03 01:33:43;;;;;;;35.17;15.05;;;;;;;3.78;89.65;99828.23;1748431;81;21030;-69
2022/03/03 01:36:09;;;;;;;33.55;15.93;;;;;;;3.85;89.71;99823.35;1748695;82;21121;-70
2022/03/03 01:38:36;;;;;;;32.67;15.90;;;;;;;3.86;88.75;99824.20;1748259;82;21002;-69
2022/03/03 01:41:02;;;;;;;35.65;15.83;;;;;;;3.82;89.30;99827.31;1748509;82;21104;-69
2022/03/03 01:43:29;;;;;;;36.23;16.60;;;;;;;3.83;89.18;99823.81;1748141;82;21033;-70
2022/03/03 01:45:56;;;;;;;30.52;14.55;;;;;;;3.72;89.17;99820.49;1748072;81;21093;-70
2022/03/03 01:48:23;;;;;;;36.88;16.65;;;;;;;3.72;89.83;99815.28;1748090;82;21132;-69
2022/03/03 01:50:49;;;;;;;32.25;14.80;;;;;;;3.85;90.42;99814.23;1748357;82;21140;-69
2022/03/03 01:53:16;;;;;;;32.83;14.83;;;;;;;3.91;89.05;99816.76;1748008;82;21014;-69
2022/03/03 01:55:43;;;;;;;39.42;16.77;;;;;;;3.93;89.28;99816.72;1748093;82;21045;-69
2022/03/03 01:58:10;;;;;;;39.45;16.37;;;;;;;3.95;88.45;99820.16;1720563;82;21050;-71
2022/03/03 02:00:38;;;;;;;31.87;14.80;;;;;;;3.94;89.02;99815.85;1748301;82;21969;-70
2022/03/03 02:03:06;;;;;;;31.48;15.80;;;;;;;4.09;88.78;99819.95;1748157;82;21179;-72
2022/03/03 02:05:33;;;;;;;30.57;15.18;;;;;;;4.14;88.50;99818.13;1748101;82;21077;-70
2022/03/03 02:08:00;;;;;;;34.70;14.85;;;;;;;4.15;87.61;99814.66;1747968;82;21041;-69
2022/03/03 02:10:27;;;;;;;29.77;14.93;;;;;;;4.12;88.49;99812.11;1748064;82;21049;-69
2022/03/03 02:12:54;;;;;;;29.67;13.35;;;;;;;4.32;88.82;99813.06;1747952;82;21141;-69
2022/03/03 02:15:21;;;;;;;25.30;12.47;;;;;;;4.52;87.55;99808.83;1747983;82;21061;-71
2022/03/03 02:17:48;;;;;;;28.47;14.28;;;;;;;4.63;87.55;99806.89;1747796;82;21069;-69
2022/03/03 02:20:21;;;;;;;27.48;13.58;;;;;;;4.87;86.40;99802.11;1748229;82;21089;-70
2022/03/03 02:22:50;;;;;;;28.17;14.55;;;;;;;4.89;84.71;99797.72;1748077;82;21053;-68
2022/03/03 02:25:17;;;;;;;31.65;15.40;;;;;;;4.89;84.02;99793.80;1748023;82;21126;-70
2022/03/03 02:27:45;;;;;;;30.60;14.70;;;;;;;4.72;83.18;99791.08;1747873;82;21073;-68
2022/03/03 02:30:13;;;;;;;28.25;13.40;;;;;;;4.48;83.39;99794.11;1748160;82;21096;-71
2022/03/03 02:32:41;;;;;;;28.20;13.72;;;;;;;4.46;85.04;99786.30;1748072;82;21093;-70
2022/03/03 02:35:08;;;;;;;26.73;12.65;;;;;;;4.48;84.93;99784.98;1748426;82;21532;-69
2022/03/03 02:37:40;;;;;;;25.17;13.45;;;;;;;4.63;85.22;99786.03;1748053;82;21198;-69
2022/03/03 02:40:12;;;;;;;27.10;14.10;;;;;;;4.68;83.53;99786.80;1748273;82;21065;-69
2022/03/03 02:42:39;;;;;;;29.35;13.22;;;;;;;4.47;83.63;99775.45;1747772;82;21051;-69
2022/03/03 02:45:07;;;;;;;26.93;13.60;;;;;;;4.40;84.84;99772.09;1748043;82;21073;-70
2022/03/03 02:47:43;;;;;;;27.15;13.85;;;;;;;4.39;84.46;99768.64;1743637;82;21061;-69
2022/03/03 02:50:10;;;;;;;24.43;12.40;;;;;;;4.53;85.43;99768.81;1742542;82;21078;-70
2022/03/03 02:52:40;;;;;;;27.10;13.08;;;;;;;4.59;84.87;99763.49;1741966;82;21050;-69
2022/03/03 02:55:08;;;;;;;24.67;11.93;;;;;;;4.64;83.38;99752.52;1742400;82;21050;-69
2022/03/03 02:57:53;;;;;;;28.90;14.30;;;;;;;4.47;84.41;99758.51;1742214;82;21090;-71
2022/03/03 03:00:34;;;;;;;27.55;13.50;;;;;;;4.48;83.40;99761.52;1742496;82;21068;-69
2022/03/03 03:02:59;;;;;;;26.27;13.48;;;;;;;4.49;83.85;99756.73;1742035;82;21869;-69
2022/03/03 03:05:25;;;;;;;28.50;14.33;;;;;;;4.27;83.53;99762.31;1742426;82;21112;-69
2022/03/03 03:07:53;;;;;;;24.18;13.22;;;;;;;4.10;84.58;99752.62;1742141;82;21030;-69
2022/03/03 03:10:19;;;;;;;28.62;14.60;;;;;;;4.14;86.48;99750.36;1742284;82;21053;-69
2022/03/03 03:12:47;;;;;;;23.95;13.40;;;;;;;4.29;85.51;99748.81;1742163;82;21105;-69
2022/03/03 03:15:15;;;;;;;26.35;13.40;;;;;;;4.22;85.41;99746.34;1742063;82;21087;-68
2022/03/03 03:17:41;;;;;;;24.70;12.23;;;;;;;4.22;85.19;99745.90;1741949;82;21055;-69
2022/03/03 03:20:10;;;;;;;24.45;13.18;;;;;;;4.11;84.92;99740.86;1742112;82;21085;-69
2022/03/03 03:22:37;;;;;;;24.47;11.97;;;;;;;4.20;86.49;99735.48;1742118;82;21108;-68
2022/03/03 03:25:07;;;;;;;24.52;11.73;;;;;;;4.29;85.94;99731.86;1742243;82;21045;-69
2022/03/03 03:27:39;;;;;;;29.32;13.88;;;;;;;4.41;85.24;99721.20;1742216;82;21457;-70
2022/03/03 03:30:09;;;;;;;26.62;13.00;;;;;;;4.46;84.96;99722.42;1742312;81;21266;-70
2022/03/03 03:32:36;;;;;;;28.17;13.30;;;;;;;4.51;84.23;99719.73;1742241;82;21057;-69
2022/03/03 03:35:07;;;;;;;26.85;12.43;;;;;;;4.39;83.75;99725.62;1742519;82;21015;-69
2022/03/03 03:37:36;;;;;;;26.05;13.80;;;;;;;4.20;84.49;99724.20;1742240;82;21714;-68
2022/03/03 03:40:04;;;;;;;29.42;14.90;;;;;;;4.13;85.27;99717.39;1742255;82;21154;-70
2022/03/03 03:42:31;;;;;;;20.60;11.00;;;;;;;4.13;84.99;99716.09;1742124;82;21604;-69
2022/03/03 03:44:57;;;;;;;26.57;13.18;;;;;;;4.14;85.21;99711.27;1742184;82;21569;-68
2022/03/03 03:47:25;;;;;;;23.62;12.40;;;;;;;4.10;84.80;99710.94;1737019;82;21058;-69
2022/03/03 03:49:52;;;;;;;21.45;11.18;;;;;;;4.01;84.41;99705.43;1734075;82;21026;-69
2022/03/03 03:52:18;;;;;;;24.05;12.28;;;;;;;3.95;86.43;99708.98;1733978;82;21144;-70
2022/03/03 03:54:47;;;;;;;23.15;11.60;;;;;;;4.04;86.09;99709.73;1733837;82;21022;-69
2022/03/03 03:57:14;;;;;;;27.67;12.53;;;;;;;4.14;86.78;99704.76;1734003;82;21097;-69
2022/03/03 03:59:42;;;;;;;27.20;12.70;;;;;;;4.24;86.26;99705.03;1734233;82;21041;-69
2022/03/03 04:02:08;;;;;;;26.00;12.28;;;;;;;4.28;85.13;99696.69;1734320;82;21053;-70
2022/03/03 04:04:35;;;;;;;26.30;12.98;;;;;;;4.17;85.15;99679.97;1734250;81;21337;-69
2022/03/03 04:07:03;;;;;;;23.00;12.13;;;;;;;4.23;84.82;99688.95;1734275;82;21025;-69
2022/03/03 04:09:29;;;;;;;21.70;11.85;;;;;;;4.13;84.55;99688.27;1734327;82;21570;-69
2022/03/03 04:11:56;;;;;;;24.15;11.83;;;;;;;3.92;84.48;99685.59;1734294;82;21050;-69
2022/03/03 04:14:22;;;;;;;21.35;11.00;;;;;;;3.83;85.74;99689.66;1734518;81;21101;-70
2022/03/03 04:16:49;;;;;;;22.45;11.08;;;;;;;3.88;86.37;99689.13;1734343;82;21224;-70
2022/03/03 04:19:16;;;;;;;23.05;12.20;;;;;;;4.05;86.44;99687.56;1734372;82;21546;-69
2022/03/03 04:21:42;;;;;;;22.95;12.15;;;;;;;4.05;85.54;99687.98;1734741;82;21046;-69
2022/03/03 04:24:10;;;;;;;24.85;12.58;;;;;;;3.98;86.02;99693.32;1734490;82;21026;-69
2022/03/03 04:26:39;;;;;;;28.75;13.48;;;;;;;3.96;85.43;99692.48;1734253;82;21312;-70
2022/03/03 04:29:06;;;;;;;23.75;12.45;;;;;;;3.94;86.01;99689.04;1734208;82;21105;-69
2022/03/03 04:31:33;;;;;;;23.45;12.05;;;;;;;3.85;85.69;99686.59;1733895;81;21042;-68
2022/03/03 04:33:59;;;;;;;24.55;12.37;;;;;;;3.75;86.22;99678.08;1734103;81;21082;-70
2022/03/03 04:36:26;;;;;;;35.70;14.07;;;;;;;3.80;87.15;99678.00;1734454;82;21073;-70
2022/03/03 04:38:53;;;;;;;26.27;12.00;;;;;;;3.87;86.31;99680.91;1734202;82;21050;-69
2022/03/03 04:41:21;;;;;;;22.93;11.65;;;;;;;3.85;86.88;99683.98;1734464;82;21947;-68
2022/03/03 04:43:47;;;;;;;23.87;10.72;;;;;;;3.94;87.00;99679.92;1734228;82;21630;-70
2022/03/03 04:46:14;;;;;;;23.92;11.78;;;;;;;3.96;87.38;99682.06;1734353;82;21523;-68
2022/03/03 04:48:42;;;;;;;23.60;12.07;;;;;;;4.18;86.93;99673.85;1726280;81;21026;-68
2022/03/03 04:51:10;;;;;;;22.98;12.07;;;;;;;4.40;86.50;99677.78;1756041;81;21583;-70
2022/03/03 04:53:36;;;;;;;23.75;12.10;;;;;;;4.36;84.51;99677.88;1752985;81;21341;-70
2022/03/03 04:56:03;;;;;;;27.15;12.68;;;;;;;4.38;85.06;99684.77;1725730;83;21104;-70
2022/03/03 04:58:30;;;;;;;23.95;12.18;;;;;;;4.38;84.45;99686.08;1725826;83;21048;-70
2022/03/03 05:00:56;;;;;;;24.65;12.40;;;;;;;4.34;83.98;99688.31;1737608;81;21513;-70
2022/03/03 05:03:23;;;;;;;20.40;10.68;;;;;;;4.14;83.51;99687.81;1755924;81;21088;-69
2022/03/03 05:05:49;;;;;;;25.00;12.55;;;;;;;4.03;84.85;99683.27;1756098;81;21150;-70
2022/03/03 05:08:19;;;;;;;37.35;14.63;;;;;;;4.13;84.99;99688.72;1755621;81;21105;-70
2022/03/03 05:10:47;;;;;;;25.10;12.07;;;;;;;4.15;84.97;99678.68;1755939;81;21025;-70
2022/03/03 05:13:14;;;;;;;23.02;11.25;;;;;;;4.17;84.60;99679.97;1755759;81;21096;-69
2022/03/03 05:15:41;;;;;;;26.17;12.47;;;;;;;4.08;85.19;99681.44;1756059;81;21033;-69
2022/03/03 05:18:08;;;;;;;23.32;12.47;;;;;;;4.28;87.44;99678.03;1728120;81;21159;-70
2022/03/03 05:20:34;;;;;;;21.60;10.93;;;;;;;4.60;86.08;99672.19;1756013;81;21495;-70
2022/03/03 05:23:03;;;;;;;28.12;13.15;;;;;;;4.71;84.17;99677.17;1756139;81;22011;-70
2022/03/03 05:25:30;;;;;;;25.02;12.93;;;;;;;4.71;83.18;99681.08;1756004;81;21565;-70
2022/03/03 05:28:00;;;;;;;21.27;10.72;;;;;;;4.63;82.12;99666.05;1755951;81;21604;-69
2022/03/03 05:30:27;;;;;;;20.05;10.55;;;;;;;4.43;82.94;99672.10;1756361;81;21108;-70
2022/03/03 05:32:53;;;;;;;24.00;11.83;;;;;;;4.33;83.05;99667.52;1756205;81;21050;-69
2022/03/03 05:35:20;;;;;;;22.60;10.82;;;;;;;4.19;83.50;99670.38;1755970;81;21076;-69
2022/03/03 05:37:46;;;;;;;24.63;12.25;;;;;;;4.02;83.82;99669.80;1755879;81;21013;-69
2022/03/03 05:40:15;;;;;;;25.50;12.82;;;;;;;3.94;85.26;99667.34;1755989;81;21150;-69
2022/03/03 05:42:43;;;;;;;25.68;12.78;;;;;;;4.01;85.47;99670.70;1756010;81;21095;-70
2022/03/03 05:45:13;;;;;;;29.23;13.75;;;;;;;4.02;85.03;99669.80;1756009;81;21041;-69
2022/03/03 05:47:40;;;;;;;30.45;14.58;;;;;;;3.85;84.85;99665.75;1753699;81;21053;-70
2022/03/03 05:50:10;;;;;;;29.45;13.58;;;;;;;3.72;85.41;99665.53;1748440;82;21887;-69
2022/03/03 05:52:37;;;;;;;24.37;12.07;;;;;;;3.74;86.36;99672.88;1748596;82;21049;-68
2022/03/03 05:55:06;;;;;;;25.30;12.05;;;;;;;3.73;86.42;99671.17;1748247;82;21167;-69
2022/03/03 05:57:39;;;;;;;24.82;12.53;;;;;;;3.73;86.24;99667.27;1748539;82;21549;-69
2022/03/03 06:00:12;;;;;;;26.33;12.88;;;;;;;3.75;86.50;99669.38;1748068;82;21089;-68
2022/03/03 06:02:52;;;;;;;23.67;11.20;;;;;;;3.74;86.40;99667.67;1748388;82;21022;-69
2022/03/03 06:05:25;;;;;;;25.45;12.55;;;;;;;3.84;86.96;99668.38;1748245;82;21057;-69
2022/03/03 06:07:58;;;;;;;27.77;14.07;;;;;;;3.90;86.82;99670.43;1748280;82;21202;-70
2022/03/03 06:10:25;;;;;;;23.92;12.50;;;;;;;3.98;86.67;99668.57;1746834;82;21029;-69
2022/03/03 06:13:00;;;;;;;26.27;12.93;;;;;;;3.94;86.78;99664.29;1748297;82;21049;-69
2022/03/03 06:15:27;;;;;;;20.00;10.48;;;;;;;4.01;86.88;99665.50;1744986;82;21395;-69
2022/03/03 06:17:53;;;;;;;22.90;10.93;;;;;;;4.26;86.97;99654.19;1748490;82;21108;-71
2022/03/03 06:20:20;;;;;;;24.67;12.33;;;;;;;4.45;85.81;99662.05;1748100;82;21167;-71
2022/03/03 06:22:49;;;;;;;23.45;11.65;;;;;;;4.40;84.62;99663.45;1696981;82;21037;-70
2022/03/03 06:25:16;;;;;;;30.10;13.48;;;;;;;4.29;84.36;99663.23;1748155;82;21041;-69
2022/03/03 06:27:43;;;;;;;26.10;13.13;;;;;;;4.13;84.18;99667.88;1748033;82;21041;-71
2022/03/03 06:30:11;;;;;;;24.60;12.58;;;;;;;3.86;84.88;99658.34;1720844;82;21108;-70
2022/03/03 06:32:39;;;;;;;25.12;12.75;;;;;;;3.77;86.63;99658.08;1748623;82;21090;-70
2022/03/03 06:35:06;;;;;;;21.12;10.80;;;;;;;3.85;87.75;99660.55;1748166;82;21037;-70
2022/03/03 06:37:34;;;;;;;21.60;10.80;;;;;;;4.08;87.93;99647.55;1748525;82;21617;-70
2022/03/03 06:40:00;;;;;;;23.25;11.30;;;;;;;4.38;87.72;99656.09;1748093;82;21128;-70
2022/03/03 06:42:27;;;;;;;19.55;10.20;;;;;;;4.71;86.23;99647.17;1748077;82;21599;-72
2022/03/03 06:44:54;;;;;;;18.85;10.65;;;;;;;4.75;84.14;99648.83;1748232;82;21294;-71
2022/03/03 06:47:22;;;;;;;21.33;10.93;;;;;;;4.71;83.93;99650.23;1748096;81;21050;-69
2022/03/03 06:49:49;;;;;;;20.97;10.03;;;;;;;4.59;83.58;99646.12;1748065;82;21534;-69
2022/03/03 06:52:17;;;;;;;22.95;12.03;;;;;;;4.55;84.83;99647.92;1748323;82;21593;-70
2022/03/03 06:54:45;;;;;;;20.85;11.15;;;;;;;4.87;85.49;99648.16;1748185;82;21537;-69
2022/03/03 06:57:11;;;;;;;21.52;11.08;;;;;;;5.17;82.79;99642.70;1748414;81;21126;-70
2022/03/03 06:59:38;;;;;;;21.68;11.12;;;;;;;5.05;81.65;99647.30;1748038;81;21112;-71
2022/03/03 07:02:05;;;;;;;20.43;11.57;;;;;;;5.08;81.99;99648.14;1748082;82;21101;-74
2022/03/03 07:04:34;;;;;;;19.77;10.70;;;;;;;4.96;80.72;99654.48;1748296;81;21085;-70
2022/03/03 07:07:00;;;;;;;19.37;10.45;;;;;;;4.72;81.40;99650.21;1748091;82;20990;-70
2022/03/03 07:09:30;;;;;;;16.97;9.23;;;;;;;4.55;82.29;99653.14;1720851;82;21176;-69
2022/03/03 07:11:57;;;;;;;18.20;10.78;;;;;;;4.47;82.59;99648.55;1748592;82;21016;-71
2022/03/03 07:14:24;;;;;;;19.45;10.63;;;;;;;4.53;83.36;99648.85;1748111;82;21571;-70
2022/03/03 07:17:03;;;;;;;18.77;10.85;;;;;;;4.52;83.81;99644.54;1748132;82;21041;-69
2022/03/03 07:19:42;;;;;;;18.75;10.60;;;;;;;4.56;83.32;99643.59;1747995;81;21061;-70
2022/03/03 07:22:37;;;;;;;16.00;9.53;;;;;;;4.44;83.51;99649.92;1748030;81;21955;-71
2022/03/03 07:25:10;;;;;;;17.10;9.10;;;;;;;4.52;84.84;99647.14;1746861;82;21128;-70
2022/03/03 07:27:41;;;;;;;19.92;10.63;;;;;;;4.83;83.83;99637.80;1748113;82;21002;-69
2022/03/03 07:30:13;;;;;;;15.03;8.10;;;;;;;5.00;83.35;99645.25;1748004;81;21526;-71
2022/03/03 07:33:15;;;;;;;15.72;9.20;;;;;;;5.16;82.91;99648.38;1748472;82;21045;-70
2022/03/03 07:35:46;;;;;;;15.93;9.43;;;;;;;5.40;81.94;99648.70;1748077;82;21205;-71
2022/03/03 07:38:15;;;;;;;15.60;9.50;;;;;;;5.40;80.36;99639.56;1747901;82;21545;-70
2022/03/03 07:40:43;;;;;;;16.10;9.35;;;;;;;5.33;80.02;99645.38;1748398;82;21088;-70
2022/03/03 07:43:12;;;;;;;14.07;8.00;;;;;;;5.14;80.26;99639.72;1747967;82;21609;-71
2022/03/03 07:45:39;;;;;;;16.93;9.68;;;;;;;5.18;81.21;99641.38;1748306;82;21537;-70
2022/03/03 07:48:08;;;;;;;15.10;9.10;;;;;;;5.43;81.73;99631.67;1748061;81;21557;-69
2022/03/03 07:50:39;;;;;;;12.78;7.10;;;;;;;5.62;80.74;99636.00;1747873;82;21052;-70
2022/03/03 07:53:07;;;;;;;14.28;8.28;;;;;;;5.86;79.84;99631.44;1747755;81;21025;-70
2022/03/03 07:55:35;;;;;;;11.97;7.05;;;;;;;6.05;77.99;99637.53;1721512;82;21112;-71
2022/03/03 07:58:02;;;;;;;13.80;7.28;;;;;;;5.96;77.63;99643.00;1718114;83;21370;-71
2022/03/03 08:02:23;;;;;;;20.57;10.20;;;;;;;6.20;76.42;99629.74;1771556;79;28138;-70
2022/03/03 08:04:52;;;;;;;14.38;8.88;;;;;;;5.79;76.17;99640.80;1726026;83;21087;-71
2022/03/03 08:07:20;;;;;;;15.98;9.53;;;;;;;5.58;77.14;99634.35;1725670;82;21135;-70
2022/03/03 08:09:48;;;;;;;17.90;9.73;;;;;;;5.57;78.88;99630.89;1693706;84;20972;-71
2022/03/03 08:12:16;;;;;;;16.37;8.93;;;;;;;5.64;77.97;99631.14;1693947;84;21131;-69
2022/03/03 08:14:44;;;;;;;16.17;9.55;;;;;;;5.58;77.41;99629.98;1666142;84;21166;-70
2022/03/03 08:17:13;;;;;;;13.90;7.85;;;;;;;5.54;78.18;99625.72;1694194;84;21567;-70
2022/03/03 08:19:42;;;;;;;14.43;7.78;;;;;;;5.43;78.05;99629.92;1693739;84;21151;-70
2022/03/03 08:22:13;;;;;;;15.13;7.75;;;;;;;5.36;78.58;99631.38;1693692;84;21100;-69
2022/03/03 08:24:43;;;;;;;12.63;7.58;;;;;;;5.40;78.97;99625.20;1693803;84;21141;-70
2022/03/03 08:27:09;;;;;;;14.70;8.43;;;;;;;5.37;78.60;99627.89;1693915;84;21053;-72
2022/03/03 08:29:37;;;;;;;13.15;7.37;;;;;;;5.37;79.25;99620.06;1693842;84;21055;-70
2022/03/03 08:32:04;;;;;;;12.30;7.33;;;;;;;5.54;80.04;99623.56;1694185;84;21100;-71
2022/03/03 08:34:43;;;;;;;13.78;8.28;;;;;;;5.72;78.89;99627.48;1693640;84;21044;-69
2022/03/03 08:37:28;;;;;;;14.33;8.43;;;;;;;5.92;78.69;99623.91;1691858;84;21572;-70
2022/03/03 08:39:58;;;;;;;14.63;8.63;;;;;;;6.03;77.64;99623.67;1693929;84;21564;-70
2022/03/03 08:42:27;;;;;;;17.55;9.63;;;;;;;6.19;76.53;99625.39;1693864;84;21104;-68
2022/03/03 08:44:54;;;;;;;16.07;9.25;;;;;;;6.27;75.71;99619.52;1693868;84;21837;-71
2022/03/03 08:47:22;;;;;;;13.20;7.92;;;;;;;6.22;74.89;99619.64;1666296;84;21087;-71
2022/03/03 08:49:55;;;;;;;11.85;7.10;;;;;;;6.01;74.72;99621.09;1692110;84;21597;-69
2022/03/03 08:52:23;;;;;;;14.63;7.58;;;;;;;5.79;75.20;99618.13;1686287;84;21529;-70
2022/03/03 08:54:51;;;;;;;11.33;6.75;;;;;;;5.70;75.40;99617.51;1678915;85;22265;-70
2022/03/03 08:57:18;;;;;;;8.75;6.25;;;;;;;5.48;76.24;99623.28;1678846;85;21576;-70
2022/03/03 08:59:46;;;;;;;9.85;6.30;;;;;;;5.36;77.15;99623.55;1678947;85;21645;-70
2022/03/03 09:02:18;;;;;;;11.65;6.92;;;;;;;5.15;77.20;99630.98;1673482;84;21061;-70
2022/03/03 09:04:46;;;;;;;10.38;6.72;;;;;;;4.93;78.72;99623.25;1681362;85;21598;-71
2022/03/03 09:07:15;;;;;;;11.55;6.85;;;;;;;5.00;79.67;99625.68;1672036;85;21135;-69
2022/03/03 09:09:43;;;;;;;11.12;6.50;;;;;;;5.03;79.13;99631.27;1681381;85;21589;-70
2022/03/03 09:12:13;;;;;;;10.28;6.83;;;;;;;5.19;80.29;99626.56;1671799;85;21604;-71
2022/03/03 09:14:40;;;;;;;8.88;6.30;;;;;;;5.45;79.08;99625.94;1656453;86;21565;-70
2022/03/03 09:17:09;;;;;;;10.63;6.80;;;;;;;5.45;78.46;99628.55;1681028;85;21517;-70
2022/03/03 09:19:37;;;;;;;12.70;7.17;;;;;;;5.55;78.38;99624.84;1671452;85;21105;-70
2022/03/03 09:22:05;;;;;;;14.93;7.33;;;;;;;5.66;78.58;99620.21;1680999;85;21798;-71
2022/03/03 09:24:33;;;;;;;30.17;10.60;;;;;;;5.68;77.86;99620.15;1671560;85;21553;-72
2022/03/03 09:27:04;;;;;;;10.13;5.72;;;;;;;5.55;77.36;99624.84;1681064;85;22387;-71
2022/03/03 09:29:33;;;;;;;8.25;5.37;;;;;;;5.42;77.70;99627.33;1671415;85;21549;-70
2022/03/03 09:32:03;;;;;;;9.15;5.90;;;;;;;5.43;79.01;99620.78;1681194;83;28206;-70
2022/03/03 09:34:31;;;;;;;9.13;5.67;;;;;;;5.66;78.77;99624.59;1671602;85;21133;-70
2022/03/03 09:36:59;;;;;;;9.05;5.83;;;;;;;5.66;77.38;99622.83;1680836;85;21065;-70
2022/03/03 09:39:26;;;;;;;9.03;5.65;;;;;;;5.47;77.51;99624.16;1671571;85;21613;-72
2022/03/03 09:41:54;;;;;;;9.70;6.17;;;;;;;5.26;77.77;99622.46;1680707;85;21116;-71
2022/03/03 09:44:23;;;;;;;12.25;6.37;;;;;;;5.10;79.07;99622.86;1671255;85;21191;-70
2022/03/03 09:46:50;;;;;;;9.78;6.28;;;;;;;5.07;79.07;99617.27;1681144;85;21844;-71
2022/03/03 09:49:18;;;;;;;10.63;6.75;;;;;;;4.94;79.48;99616.67;1671365;85;21078;-70
2022/03/03 09:51:47;;;;;;;11.55;7.40;;;;;;;4.86;81.11;99609.93;1680819;85;22171;-70
2022/03/03 09:54:15;;;;;;;11.93;7.00;;;;;;;4.96;80.88;99615.34;1681268;84;21084;-70
2022/03/03 09:56:42;;;;;;;10.48;6.83;;;;;;;4.96;80.58;99612.73;1709393;83;21092;-69
2022/03/03 09:59:09;;;;;;;9.38;5.47;;;;;;;5.03;80.94;99609.09;1699697;84;21178;-68
2022/03/03 10:01:37;;;;;;;10.93;6.33;;;;;;;5.06;80.51;99607.70;1705284;83;21026;-69
2022/03/03 10:04:20;;;;;;;9.78;6.45;;;;;;;5.06;80.59;99602.48;1670534;85;21100;-70
2022/03/03 10:06:48;;;;;;;10.50;6.25;;;;;;;5.06;80.65;99603.79;1734065;82;21069;-70
2022/03/03 10:09:16;;;;;;;9.90;6.53;;;;;;;5.05;81.12;99599.48;1734210;82;21078;-70
2022/03/03 10:12:07;;;;;;;10.28;7.22;;;;;;;5.07;81.48;99605.52;1734072;82;21105;-70
2022/03/03 10:14:36;;;;;;;10.28;6.90;;;;;;;5.17;82.26;99597.02;1733990;82;21050;-70
2022/03/03 10:17:05;;;;;;;10.70;6.33;;;;;;;5.55;81.22;99601.33;1734404;82;21079;-70
2022/03/03 10:19:33;;;;;;;10.30;6.47;;;;;;;5.57;80.14;99602.16;1733846;82;21054;-71
2022/03/03 10:22:00;;;;;;;10.43;6.42;;;;;;;5.55;79.59;99601.33;1734213;82;21054;-71
2022/03/03 10:24:29;;;;;;;10.43;6.20;;;;;;;5.50;79.30;99595.38;1733842;82;21502;-71
2022/03/03 10:27:03;;;;;;;9.58;5.95;;;;;;;5.48;79.59;99594.55;1733942;82;21534;-71
2022/03/03 10:29:32;;;;;;;10.68;6.58;;;;;;;5.51;79.58;99591.00;1712588;82;21796;-72
2022/03/03 10:32:00;;;;;;;10.65;6.55;;;;;;;5.59;79.41;99587.30;1734296;82;21042;-71
2022/03/03 10:34:30;;;;;;;11.50;7.15;;;;;;;5.68;79.51;99587.07;1712967;82;21065;-70
2022/03/03 10:37:03;;;;;;;7.00;5.20;;;;;;;5.86;78.68;99578.32;1734305;82;21113;-72
2022/03/03 10:39:43;;;;;;;10.20;6.10;;;;;;;5.93;78.75;99578.56;1733884;82;21549;-69
2022/03/03 10:42:17;;;;;;;8.28;5.92;;;;;;;6.13;78.31;99576.76;1734333;82;21097;-69
2022/03/03 10:45:12;;;;;;;10.10;6.15;;;;;;;6.13;76.19;99570.68;1734185;82;21121;-70
2022/03/03 10:48:07;;;;;;;10.10;6.42;;;;;;;6.12;77.40;99565.03;1734276;82;21053;-69
2022/03/03 10:50:50;;;;;;;8.70;6.33;;;;;;;6.20;76.37;99563.06;1733833;82;21151;-71
2022/03/03 10:53:22;;;;;;;8.80;6.00;;;;;;;6.09;76.54;99566.82;1734226;82;21617;-69
2022/03/03 10:56:08;;;;;;;8.13;5.67;;;;;;;6.09;76.71;99564.20;1703195;83;21109;-70
2022/03/03 10:58:58;;;;;;;8.70;5.95;;;;;;;6.06;76.65;99561.69;1682873;84;21061;-70
2022/03/03 11:01:27;;;;;;;;;;;;;;;6.18;76.69;99562.25;1705789;83;21574;-68
2022/03/03 11:03:55;;;;;;;10.35;6.00;;;;;;;6.19;76.06;99558.30;1703029;84;21110;-69
2022/03/03 11:06:33;;;;;;;9.68;6.17;;;;;;;6.16;75.99;99566.66;1703134;84;21534;-73
2022/03/03 11:09:00;;;;;;;9.58;6.62;;;;;;;6.04;75.96;99562.64;1703469;84;21997;-69
2022/03/03 11:11:29;;;;;;;9.45;6.62;;;;;;;6.04;77.04;99563.48;1703590;84;21084;-71
2022/03/03 11:13:59;;;;;;;7.72;5.28;;;;;;;6.02;75.92;99565.28;1683302;84;21092;-69
2022/03/03 11:16:30;;;;;;;10.50;6.10;;;;;;;6.12;76.64;99562.41;1683797;84;21590;-70
2022/03/03 11:18:58;;;;;;;6.75;4.97;;;;;;;6.38;75.13;99562.55;1703134;84;21463;-70
2022/03/03 11:21:26;;;;;;;8.90;5.70;;;;;;;6.45;75.05;99561.92;1703205;84;21597;-70
2022/03/03 11:23:59;;;;;;;11.25;7.25;;;;;;;6.58;74.33;99554.13;1703067;83;21073;-70
2022/03/03 11:26:34;;;;;;;8.48;5.60;;;;;;;6.60;74.00;99554.05;1684144;84;21035;-69
2022/03/03 11:29:18;;;;;;;9.50;6.62;;;;;;;6.69;74.44;99547.23;1703133;83;21259;-70
2022/03/03 11:32:01;;;;;;;9.50;7.08;;;;;;;6.90;74.21;99549.64;1703669;84;21014;-70
2022/03/03 11:34:43;;;;;;;7.95;5.53;;;;;;;7.22;73.44;99547.30;1703067;84;22127;-71
2022/03/03 11:37:23;;;;;;;8.20;5.62;;;;;;;7.41;71.47;99542.77;1703218;83;21614;-71
2022/03/03 11:39:59;;;;;;;10.30;6.97;;;;;;;7.27;70.72;99544.10;1703374;84;21645;-70